createdAt,value
2019-04-26T00:00:07.831Z,60.33
2019-04-26T00:02:51.066Z,60.40
2019-04-26T00:05:33.870Z,62.87
2019-04-26T00:07:55.369Z,61.67
2019-04-26T00:10:58.044Z,60.03
2019-04-26T00:13:51.031Z,71.63
2019-04-26T00:16:32.922Z,67.13
2019-04-26T00:19:04.247Z,60.20
2019-04-26T00:21:36.998Z,62.20
2019-04-26T00:24:08.566Z,65.67
2019-04-26T00:26:40.476Z,58.20
2019-04-26T00:29:12.677Z,66.77
2019-04-26T00:31:44.184Z,71.40
2019-04-26T00:34:18.213Z,67.33
2019-04-26T00:36:49.582Z,55.33
2019-04-26T00:39:20.863Z,69.43
2019-04-26T00:41:52.081Z,60.63
2019-04-26T00:44:23.248Z,58.63
2019-04-26T00:46:57.430Z,71.83
2019-04-26T00:49:42.772Z,59.17
2019-04-26T00:52:04.238Z,75.30
2019-04-26T00:54:36.572Z,63.50
2019-04-26T00:57:08.461Z,70.63
2019-04-26T00:59:40.560Z,66.83
2019-04-26T01:02:20.644Z,65.40
2019-04-26T01:04:51.945Z,65.33
2019-04-26T01:07:23.246Z,67.10
2019-04-26T01:09:54.668Z,65.70
2019-04-26T01:12:26.128Z,65.17
2019-04-26T01:14:59.055Z,72.63
2019-04-26T01:17:30.369Z,71.93
2019-04-26T01:20:03.002Z,67.30
2019-04-26T01:22:37.133Z,68.90
2019-04-26T01:25:08.295Z,62.40
2019-04-26T01:27:39.788Z,56.33
2019-04-26T01:30:11.780Z,64.63
2019-04-26T01:32:44.754Z,54.70
2019-04-26T01:35:15.994Z,62.83
2019-04-26T01:37:48.418Z,56.40
2019-04-26T01:40:22.046Z,65.43
2019-04-26T01:42:58.442Z,60.93
2019-04-26T01:45:53.125Z,54.37
2019-04-26T01:48:43.618Z,66.80
2019-04-26T01:51:22.827Z,61.53
2019-04-26T01:53:54.269Z,56.37
2019-04-26T01:56:31.339Z,62.73
2019-04-26T01:59:03.241Z,65.93
2019-04-26T02:01:43.348Z,57.87
2019-04-26T02:04:14.704Z,65.73
2019-04-26T02:06:46.374Z,61.83
2019-04-26T02:09:17.619Z,62.13
2019-04-26T02:11:48.835Z,68.70
2019-04-26T02:14:20.404Z,50.80
2019-04-26T02:16:52.704Z,55.10
2019-04-26T02:19:24.849Z,60.13
2019-04-26T02:22:04.192Z,61.17
2019-04-26T02:24:39.094Z,57.83
2019-04-26T02:27:24.729Z,53.50
2019-04-26T02:29:57.365Z,70.13
2019-04-26T02:32:31.385Z,52.77
2019-04-26T02:35:04.413Z,61.97
2019-04-26T02:37:36.920Z,65.87
2019-04-26T02:40:13.167Z,55.53
2019-04-26T02:42:47.749Z,54.60
2019-04-26T02:45:49.273Z,57.63
2019-04-26T02:48:42.156Z,51.00
2019-04-26T02:51:18.420Z,58.83
2019-04-26T02:54:13.980Z,54.80
2019-04-26T02:56:48.213Z,54.83
2019-04-26T02:59:42.407Z,53.70
2019-04-26T03:02:30.275Z,53.53
2019-04-26T03:05:07.680Z,56.07
2019-04-26T03:08:19.429Z,53.60
2019-04-26T03:11:17.741Z,47.20
2019-04-26T03:14:09.535Z,45.67
2019-04-26T03:17:11.141Z,54.97
2019-04-26T03:20:02.433Z,51.33
2019-04-26T03:23:07.581Z,48.63
2019-04-26T03:26:04.320Z,50.23
2019-04-26T03:28:46.557Z,58.87
2019-04-26T03:31:54.295Z,52.80
2019-04-26T03:40:41.043Z,52.17
2019-04-26T03:43:45.841Z,43.27
2019-04-26T03:46:41.172Z,41.93
2019-04-26T03:49:35.716Z,48.40
2019-04-26T03:52:32.224Z,53.60
2019-04-26T03:55:09.241Z,71.63
2019-04-26T03:57:52.930Z,85.70
2019-04-26T04:00:47.030Z,61.53
2019-04-26T04:03:48.018Z,51.40
2019-04-26T04:06:26.561Z,54.13
2019-04-26T04:09:06.489Z,62.03
2019-04-26T04:11:49.082Z,59.37
2019-04-26T04:14:52.524Z,49.50
2019-04-26T04:17:39.630Z,48.97
2019-04-26T04:21:09.928Z,61.67
2019-04-26T04:23:58.243Z,50.77
2019-04-26T04:26:50.683Z,53.80
2019-04-26T04:29:46.499Z,46.80
2019-04-26T04:32:35.481Z,51.87
2019-04-26T04:35:11.322Z,44.37
2019-04-26T04:38:08.079Z,51.00
2019-04-26T04:41:08.577Z,49.63
2019-04-26T04:43:50.939Z,49.40
2019-04-26T04:47:25.052Z,63.83
2019-04-26T04:50:16.967Z,49.87
2019-04-26T04:53:01.009Z,65.57
2019-04-26T04:55:45.203Z,58.00
2019-04-26T04:58:23.570Z,59.50
2019-04-26T05:02:05.019Z,50.90
2019-04-26T05:05:05.504Z,55.23
2019-04-26T05:08:06.854Z,65.00
2019-04-26T05:10:49.842Z,56.03
2019-04-26T05:13:33.655Z,66.67
2019-04-26T05:17:02.599Z,59.80
2019-04-26T05:19:59.837Z,51.83
2019-04-26T05:22:57.404Z,58.30
2019-04-26T05:26:22.135Z,58.67
2019-04-26T05:29:17.320Z,44.67
2019-04-26T05:31:59.041Z,46.50
2019-04-26T05:34:41.403Z,48.13
2019-04-26T05:37:57.267Z,52.30
2019-04-26T05:41:12.320Z,42.73
2019-04-26T05:44:28.860Z,53.43
2019-04-26T05:47:39.561Z,50.53
2019-04-26T05:51:17.964Z,47.43
2019-04-26T05:54:54.036Z,42.93
2019-04-26T05:58:10.179Z,37.53
2019-04-26T06:01:43.121Z,43.43
2019-04-26T06:05:03.467Z,46.13
2019-04-26T06:08:03.027Z,45.57
2019-04-26T06:10:43.927Z,35.93
2019-04-26T06:13:59.960Z,37.47
2019-04-26T06:17:28.619Z,42.30
2019-04-26T06:20:34.571Z,31.03
2019-04-26T06:23:16.724Z,40.07
2019-04-26T06:26:03.354Z,44.83
2019-04-26T06:28:57.494Z,34.97
2019-04-26T06:31:42.039Z,39.03
2019-04-26T06:34:18.800Z,37.13
2019-04-26T06:37:07.427Z,40.83
2019-04-26T06:39:53.392Z,33.00
2019-04-26T06:43:20.486Z,43.03
2019-04-26T06:46:44.311Z,33.67
2019-04-26T06:49:31.555Z,31.70
2019-04-26T06:52:12.407Z,38.83
2019-04-26T06:55:40.452Z,38.23
2019-04-26T06:58:47.421Z,38.10
2019-04-26T07:01:52.483Z,32.90
2019-04-26T07:04:56.303Z,33.23
2019-04-26T07:08:09.212Z,31.63
2019-04-26T07:11:28.885Z,28.80
2019-04-26T07:14:20.023Z,23.07
2019-04-26T07:17:12.122Z,26.57
2019-04-26T07:20:22.785Z,25.73
2019-04-26T07:23:50.339Z,22.70
2019-04-26T07:27:05.962Z,25.50
2019-04-26T07:30:21.820Z,22.53
2019-04-26T07:33:11.285Z,20.53
2019-04-26T07:36:07.666Z,23.50
2019-04-26T07:39:22.335Z,19.57
2019-04-26T07:42:34.079Z,24.73
2019-04-26T07:45:31.777Z,19.60
2019-04-26T07:49:05.975Z,22.23
2019-04-26T07:52:20.026Z,18.37
2019-04-26T07:55:23.220Z,21.13
2019-04-26T07:58:34.817Z,21.57
2019-04-26T08:01:42.469Z,21.37
2019-04-26T08:04:22.318Z,19.93
2019-04-26T08:07:06.268Z,22.33
2019-04-26T08:09:41.251Z,24.73
2019-04-26T08:12:17.052Z,21.10
2019-04-26T08:15:33.664Z,23.37
2019-04-26T08:18:15.163Z,24.00
2019-04-26T08:20:55.721Z,21.63
2019-04-26T08:23:42.039Z,22.43
2019-04-26T08:26:15.515Z,20.00
2019-04-26T08:28:50.926Z,24.77
2019-04-26T08:31:26.233Z,20.77
2019-04-26T08:34:04.604Z,21.57
2019-04-26T08:36:43.776Z,16.20
2019-04-26T08:39:44.294Z,22.23
2019-04-26T08:42:04.659Z,22.73
2019-04-26T08:45:10.337Z,24.30
2019-04-26T08:48:13.743Z,19.23
2019-04-26T08:50:48.701Z,25.67
2019-04-26T08:53:23.759Z,17.53
2019-04-26T08:55:58.915Z,20.17
2019-04-26T08:58:33.771Z,23.80
2019-04-26T09:01:19.712Z,16.67
2019-04-26T09:04:01.362Z,18.20
2019-04-26T09:06:42.874Z,21.17
2019-04-26T09:09:20.885Z,23.77
2019-04-26T09:11:59.831Z,21.33
2019-04-26T09:14:32.800Z,19.60
2019-04-26T09:17:05.533Z,20.10
2019-04-26T09:19:37.595Z,23.60
2019-04-26T09:22:26.433Z,17.10
2019-04-26T09:25:11.939Z,19.07
2019-04-26T09:27:51.401Z,23.07
2019-04-26T09:30:34.598Z,20.53
2019-04-26T09:33:35.829Z,18.30
2019-04-26T09:36:05.921Z,24.70
2019-04-26T09:38:38.061Z,21.50
2019-04-26T09:41:10.214Z,22.20
2019-04-26T09:43:49.357Z,15.27
2019-04-26T09:46:38.856Z,17.10
2019-04-26T09:49:14.679Z,24.63
2019-04-26T09:51:46.766Z,19.20
2019-04-26T09:54:18.983Z,18.30
2019-04-26T09:56:51.268Z,20.23
2019-04-26T09:59:23.655Z,19.87
2019-04-26T10:01:59.428Z,21.83
2019-04-26T10:04:29.477Z,19.53
2019-04-26T10:07:03.294Z,20.97
2019-04-26T10:09:35.678Z,21.30
2019-04-26T10:12:26.970Z,14.97
2019-04-26T10:15:22.312Z,18.67
2019-04-26T10:17:52.804Z,16.93
2019-04-26T10:20:25.127Z,19.00
2019-04-26T10:22:57.100Z,18.93
2019-04-26T10:25:29.390Z,16.87
2019-04-26T10:28:01.565Z,19.27
2019-04-26T10:30:33.799Z,16.80
2019-04-26T10:33:05.840Z,18.83
2019-04-26T10:35:38.173Z,18.43
2019-04-26T10:38:10.364Z,14.47
2019-04-26T10:40:42.557Z,14.73
2019-04-26T10:43:15.107Z,17.13
2019-04-26T10:45:53.586Z,19.53
2019-04-26T10:48:23.092Z,16.47
2019-04-26T10:50:54.800Z,17.13
2019-04-26T10:53:44.398Z,16.53
2019-04-26T10:56:50.871Z,17.13
2019-04-26T10:59:31.670Z,17.93
2019-04-26T11:02:03.316Z,17.50
2019-04-26T11:04:37.312Z,16.27
2019-04-26T11:07:09.477Z,17.07
2019-04-26T11:09:41.852Z,19.53
2019-04-26T11:12:16.336Z,21.83
2019-04-26T11:14:48.720Z,37.97
2019-04-26T11:17:20.380Z,19.33
2019-04-26T11:19:52.849Z,20.33
2019-04-26T11:22:29.216Z,23.63
2019-04-26T11:24:58.731Z,16.13
2019-04-26T11:27:31.258Z,20.00
2019-04-26T11:30:11.594Z,19.57
2019-04-26T11:32:40.176Z,22.03
2019-04-26T11:35:12.507Z,21.90
2019-04-26T11:37:46.445Z,16.47
2019-04-26T11:40:18.679Z,21.23
2019-04-26T11:42:50.914Z,17.67
2019-04-26T11:45:23.161Z,24.77
2019-04-26T11:47:56.548Z,23.97
2019-04-26T11:50:28.638Z,20.33
2019-04-26T11:53:00.459Z,22.73
2019-04-26T11:55:32.882Z,22.73
2019-04-26T11:58:05.067Z,20.13
2019-04-26T12:00:42.404Z,21.60
2019-04-26T12:03:14.604Z,22.87
2019-04-26T12:06:12.722Z,20.57
2019-04-26T12:08:50.513Z,22.27
2019-04-26T12:11:30.355Z,24.13
2019-04-26T12:13:59.513Z,17.30
2019-04-26T12:16:31.449Z,22.70
2019-04-26T12:19:03.300Z,22.63
2019-04-26T12:21:35.457Z,20.97
2019-04-26T12:24:07.265Z,24.57
2019-04-26T12:26:43.092Z,19.90
2019-04-26T12:29:14.686Z,25.93
2019-04-26T12:31:46.377Z,24.77
2019-04-26T12:34:19.107Z,24.20
2019-04-26T12:36:51.672Z,21.73
2019-04-26T12:39:25.208Z,21.63
2019-04-26T12:42:08.170Z,19.73
2019-04-26T12:45:00.860Z,23.13
2019-04-26T12:47:43.238Z,23.87
2019-04-26T12:50:16.561Z,37.17
2019-04-26T12:52:51.288Z,21.30
2019-04-26T12:55:21.470Z,23.70
2019-04-26T12:57:53.233Z,22.23
2019-04-26T13:00:28.349Z,21.47
2019-04-26T13:03:01.527Z,17.47
2019-04-26T13:05:34.403Z,16.67
2019-04-26T13:08:06.819Z,30.50
2019-04-26T13:10:52.653Z,19.47
2019-04-26T13:13:38.216Z,26.93
2019-04-26T13:16:13.878Z,15.50
2019-04-26T13:18:46.970Z,22.43
2019-04-26T13:21:18.313Z,17.57
2019-04-26T13:23:49.951Z,48.53
2019-04-26T13:26:22.016Z,19.03
2019-04-26T13:28:57.088Z,24.07
2019-04-26T13:31:31.473Z,17.90
2019-04-26T13:34:03.058Z,21.07
2019-04-26T13:36:33.657Z,23.77
2019-04-26T13:39:09.354Z,27.63
2019-04-26T13:41:42.356Z,32.27
2019-04-26T13:44:14.021Z,18.57
2019-04-26T13:47:03.788Z,16.53
2019-04-26T13:49:52.589Z,18.70
2019-04-26T13:52:24.820Z,21.70
2019-04-26T13:54:56.578Z,23.37
2019-04-26T13:57:28.787Z,30.60
2019-04-26T14:00:02.479Z,24.80
2019-04-26T14:02:35.177Z,17.97
2019-04-26T14:05:11.020Z,20.50
2019-04-26T14:07:41.774Z,26.40
2019-04-26T14:10:13.624Z,36.67
2019-04-26T14:12:46.207Z,22.93
2019-04-26T14:15:18.792Z,44.73
2019-04-26T14:17:50.771Z,21.43
2019-04-26T14:20:23.306Z,21.33
2019-04-26T14:23:18.001Z,17.00
2019-04-26T14:26:05.234Z,17.80
2019-04-26T14:28:41.918Z,43.80
2019-04-26T14:31:16.536Z,15.13
2019-04-26T14:33:45.940Z,33.77
2019-04-26T14:36:22.722Z,17.07
2019-04-26T14:39:05.224Z,16.53
2019-04-26T14:41:27.367Z,41.47
2019-04-26T14:43:59.346Z,16.23
2019-04-26T14:46:31.699Z,16.97
2019-04-26T14:49:05.665Z,18.90
2019-04-26T14:51:40.417Z,20.23
2019-04-26T14:54:12.511Z,19.97
2019-04-26T14:56:52.075Z,33.90
2019-04-26T14:59:39.399Z,22.70
2019-04-26T15:02:29.585Z,18.07
2019-04-26T15:05:18.120Z,29.87
2019-04-26T15:07:51.973Z,21.77
2019-04-26T15:10:25.534Z,17.47
2019-04-26T15:13:14.262Z,18.60
2019-04-26T15:15:34.634Z,24.70
2019-04-26T15:18:07.365Z,23.83
2019-04-26T15:20:39.197Z,45.13
2019-04-26T15:23:11.098Z,37.17
2019-04-26T15:25:48.263Z,15.97
2019-04-26T15:28:15.997Z,34.23
2019-04-26T15:30:47.940Z,16.77
2019-04-26T15:33:20.086Z,25.33
2019-04-26T15:35:52.269Z,19.30
2019-04-26T15:38:24.360Z,21.67
2019-04-26T15:41:16.643Z,15.77
2019-04-26T15:44:08.176Z,21.23
2019-04-26T15:47:07.826Z,18.13
2019-04-26T15:49:45.144Z,25.17
2019-04-26T15:52:16.477Z,15.47
2019-04-26T15:54:48.266Z,20.00
2019-04-26T15:57:20.135Z,27.63
2019-04-26T15:59:54.431Z,32.00
2019-04-26T16:02:26.554Z,19.23
2019-04-26T16:04:58.362Z,21.07
2019-04-26T16:07:30.196Z,17.67
2019-04-26T16:10:02.353Z,26.40
2019-04-26T16:12:35.150Z,18.20
2019-04-26T16:15:11.416Z,20.17
2019-04-26T16:17:41.291Z,16.07
2019-04-26T16:20:13.614Z,32.17
2019-04-26T16:22:45.603Z,21.77
2019-04-26T16:25:17.997Z,17.43
2019-04-26T16:27:51.267Z,35.50
2019-04-26T16:30:40.257Z,17.50
2019-04-26T16:33:15.833Z,25.00
2019-04-26T16:35:47.262Z,33.17
2019-04-26T16:38:35.474Z,19.63
2019-04-26T16:41:08.226Z,20.17
2019-04-26T16:43:44.684Z,39.63
2019-04-26T16:46:20.197Z,21.40
2019-04-26T16:48:45.419Z,22.20
2019-04-26T16:51:17.165Z,23.37
2019-04-26T16:54:03.661Z,24.10
2019-04-26T16:58:55.165Z,34.80
2019-04-26T17:00:45.532Z,22.40
2019-04-26T17:01:27.235Z,27.13
2019-04-26T17:03:58.845Z,22.57
2019-04-26T17:06:30.475Z,19.93
2019-04-26T17:09:05.249Z,23.53
2019-04-26T17:11:41.113Z,24.03
2019-04-26T17:14:10.930Z,19.10
2019-04-26T17:16:44.411Z,23.47
2019-04-26T17:19:19.659Z,35.37
2019-04-26T17:22:04.569Z,54.67
2019-04-26T17:24:46.920Z,46.07
2019-04-26T17:27:20.283Z,33.90
2019-04-26T17:29:52.936Z,29.53
2019-04-26T17:32:24.946Z,39.80
2019-04-26T17:34:59.485Z,39.40
2019-04-26T17:37:30.569Z,37.40
2019-04-26T17:40:03.417Z,40.10
2019-04-26T17:42:36.453Z,28.43
2019-04-26T17:45:08.018Z,20.73
2019-04-26T17:47:42.734Z,23.73
2019-04-26T17:50:14.888Z,24.43
2019-04-26T17:52:46.656Z,23.07
2019-04-26T17:55:18.549Z,23.90
2019-04-26T17:57:52.393Z,34.80
2019-04-26T18:00:28.667Z,23.80
2019-04-26T18:02:59.235Z,22.63
2019-04-26T18:05:41.987Z,31.43
2019-04-26T18:08:30.591Z,31.27
2019-04-26T18:10:41.344Z,39.47
2019-04-26T18:13:16.065Z,81.27
2019-04-26T18:15:46.867Z,57.80
2019-04-26T18:18:38.439Z,47.23
2019-04-26T18:21:31.511Z,40.43
2019-04-26T18:24:02.898Z,35.30
2019-04-26T18:26:35.014Z,54.60
2019-04-26T18:29:08.091Z,35.20
2019-04-26T18:31:40.057Z,44.73
2019-04-26T18:34:12.794Z,30.57
2019-04-26T18:36:44.628Z,36.37
2019-04-26T18:39:18.015Z,29.07
2019-04-26T18:41:50.158Z,39.73
2019-04-26T18:44:35.379Z,34.13
2019-04-26T18:47:03.756Z,35.90
2019-04-26T18:49:36.758Z,22.60
2019-04-26T18:52:08.931Z,42.37
2019-04-26T18:54:51.353Z,35.33
2019-04-26T18:57:23.878Z,29.80
2019-04-26T18:59:55.223Z,24.93
2019-04-26T19:02:27.294Z,29.57
2019-04-26T19:04:59.101Z,24.30
2019-04-26T19:07:32.355Z,33.80
2019-04-26T19:10:05.478Z,32.30
2019-04-26T19:12:38.856Z,29.23
2019-04-26T19:15:41.738Z,41.23
2019-04-26T19:18:42.430Z,32.50
2019-04-26T19:21:39.294Z,35.73
2019-04-26T19:24:17.701Z,34.57
2019-04-26T19:26:49.606Z,31.70
2019-04-26T19:29:22.463Z,29.70
2019-04-26T19:31:52.265Z,39.13
2019-04-26T19:34:26.030Z,91.87
2019-04-26T19:36:59.756Z,69.07
2019-04-26T19:39:33.260Z,63.50
2019-04-26T19:42:09.158Z,45.00
2019-04-26T19:44:42.096Z,49.70
2019-04-26T19:47:30.257Z,154.67
2019-04-26T19:50:11.312Z,48.17
2019-04-26T19:52:55.857Z,41.10
2019-04-26T19:55:54.892Z,40.83
2019-04-26T19:58:27.801Z,32.40
2019-04-26T20:00:59.635Z,42.37
2019-04-26T20:03:33.824Z,46.30
2019-04-26T20:06:05.522Z,39.67
2019-04-26T20:08:44.464Z,36.33
2019-04-26T20:11:12.824Z,34.63
2019-04-26T20:13:46.949Z,33.33
2019-04-26T20:16:15.912Z,33.93
2019-04-26T20:18:47.111Z,35.63
2019-04-26T20:21:18.506Z,34.63
2019-04-26T20:23:52.651Z,51.60
2019-04-26T20:26:22.985Z,46.77
2019-04-26T20:28:55.197Z,51.30
2019-04-26T20:31:48.357Z,50.07
2019-04-26T20:34:21.740Z,54.23
2019-04-26T20:36:53.379Z,56.10
2019-04-26T20:39:25.174Z,46.57
2019-04-26T20:42:01.933Z,55.47
2019-04-26T20:44:47.344Z,79.03
2019-04-26T20:47:03.448Z,64.47
2019-04-26T20:49:47.209Z,72.20
2019-04-26T20:52:08.347Z,61.93
2019-04-26T20:54:41.593Z,65.13
2019-04-26T20:57:13.385Z,67.00
2019-04-26T20:59:45.228Z,73.97
2019-04-26T21:02:20.691Z,62.03
2019-04-26T21:04:51.529Z,65.80
2019-04-26T21:07:23.203Z,62.40
2019-04-26T21:09:54.518Z,68.80
2019-04-26T21:12:25.895Z,63.83
2019-04-26T21:14:57.405Z,61.87
2019-04-26T21:17:28.781Z,57.17
2019-04-26T21:19:59.848Z,74.07
2019-04-26T21:22:31.808Z,71.27
2019-04-26T21:25:08.089Z,73.43
2019-04-26T21:28:06.719Z,76.53
2019-04-26T21:31:10.209Z,67.17
2019-04-26T21:33:45.579Z,65.40
2019-04-26T21:36:34.648Z,69.57
2019-04-26T21:39:24.619Z,66.60
2019-04-26T21:41:55.946Z,74.03
2019-04-26T21:44:27.144Z,70.63
2019-04-26T21:46:59.939Z,69.67
2019-04-26T21:49:32.730Z,62.33
2019-04-26T21:52:04.549Z,59.60
2019-04-26T21:54:35.773Z,60.40
2019-04-26T21:57:07.018Z,64.40
2019-04-26T21:59:40.916Z,66.90
2019-04-26T22:02:11.932Z,66.60
2019-04-26T22:04:43.638Z,66.07
2019-04-26T22:07:14.956Z,58.10
2019-04-26T22:10:05.311Z,60.20
2019-04-26T22:12:35.817Z,63.50
2019-04-26T22:15:29.565Z,68.77
2019-04-26T22:18:06.246Z,66.83
2019-04-26T22:20:48.128Z,99.47
2019-04-26T22:23:26.428Z,108.07
2019-04-26T22:26:00.163Z,103.10
2019-04-26T22:28:35.505Z,78.67
2019-04-26T22:31:07.245Z,80.43
2019-04-26T22:33:36.733Z,120.13
2019-04-26T22:36:08.197Z,86.80
2019-04-26T22:38:39.823Z,108.67
2019-04-26T22:41:11.034Z,97.17
2019-04-26T22:43:54.141Z,101.23
2019-04-26T22:46:46.431Z,124.27
2019-04-26T22:49:08.275Z,110.83
2019-04-26T22:51:39.382Z,93.73
2019-04-26T22:54:10.591Z,96.97
2019-04-26T22:56:43.817Z,84.70
2019-04-26T22:59:14.577Z,84.43
2019-04-26T23:01:48.763Z,80.17
2019-04-26T23:04:23.557Z,65.07
2019-04-26T23:06:54.296Z,69.00
2019-04-26T23:09:25.414Z,67.07
2019-04-26T23:12:04.764Z,68.17
2019-04-26T23:14:55.054Z,71.07
2019-04-26T23:17:51.530Z,67.03
2019-04-26T23:20:37.732Z,54.03
2019-04-26T23:23:08.673Z,54.43
2019-04-26T23:25:40.038Z,65.37
2019-04-26T23:28:11.697Z,54.60
2019-04-26T23:30:44.251Z,57.20
2019-04-26T23:33:15.802Z,52.13
2019-04-26T23:35:47.812Z,56.67
2019-04-26T23:38:18.987Z,62.47
2019-04-26T23:40:50.605Z,68.90
2019-04-26T23:43:25.417Z,60.47
2019-04-26T23:45:55.035Z,61.70
2019-04-26T23:48:26.074Z,57.67
2019-04-26T23:50:59.951Z,53.30
2019-04-26T23:53:30.117Z,52.73
2019-04-26T23:56:01.727Z,51.70
2019-04-26T23:58:32.990Z,54.83
